createdAt,value
2018-05-04T00:00:24.402Z,6.17
2018-05-04T00:02:54.786Z,3.30
2018-05-04T00:05:25.889Z,3.60
2018-05-04T00:07:56.197Z,3.93
2018-05-04T00:10:48.749Z,4.80
2018-05-04T00:13:19.091Z,4.77
2018-05-04T00:15:49.426Z,5.73
2018-05-04T00:18:19.860Z,5.07
2018-05-04T00:20:50.213Z,4.07
2018-05-04T00:23:20.564Z,5.07
2018-05-04T00:25:54.992Z,3.53
2018-05-04T00:28:47.533Z,3.73
2018-05-04T00:34:30.575Z,6.63
2018-05-04T00:37:08.092Z,4.30
2018-05-04T00:39:38.657Z,3.97
2018-05-04T00:42:09.756Z,3.77
2018-05-04T00:44:40.141Z,4.53
2018-05-04T00:47:10.488Z,2.80
2018-05-04T00:49:40.817Z,4.03
2018-05-04T00:52:15.283Z,5.03
2018-05-04T00:54:45.643Z,5.17
2018-05-04T00:57:15.979Z,3.67
2018-05-04T00:59:46.334Z,4.67
2018-05-04T01:02:16.668Z,3.57
2018-05-04T01:04:47.022Z,6.10
2018-05-04T01:07:18.142Z,4.53
2018-05-04T01:09:48.472Z,3.40
2018-05-04T01:12:18.806Z,5.60
2018-05-04T01:14:49.184Z,6.33
2018-05-04T01:17:22.587Z,5.17
2018-05-04T01:19:52.921Z,4.90
2018-05-04T01:22:23.302Z,4.97
2018-05-04T01:24:54.421Z,4.97
2018-05-04T01:27:24.752Z,5.70
2018-05-04T01:29:55.145Z,4.63
2018-05-04T01:32:25.482Z,2.90
2018-05-04T01:34:55.823Z,8.77
2018-05-04T01:37:26.184Z,3.90
2018-05-04T01:39:56.515Z,5.13
2018-05-04T01:42:26.816Z,3.90
2018-05-04T01:44:57.913Z,4.77
2018-05-04T01:47:28.248Z,4.07
2018-05-04T01:49:58.590Z,4.93
2018-05-04T01:52:28.940Z,3.17
2018-05-04T01:55:00.044Z,7.03
2018-05-04T01:57:30.371Z,4.03
2018-05-04T02:00:00.753Z,5.27
2018-05-04T02:02:31.105Z,4.33
2018-05-04T02:05:07.624Z,5.10
2018-05-04T02:07:38.734Z,6.47
2018-05-04T02:10:09.099Z,8.00
2018-05-04T02:12:40.194Z,4.67
2018-05-04T02:15:10.536Z,7.17
2018-05-04T02:17:40.867Z,6.60
2018-05-04T02:20:11.229Z,5.97
2018-05-04T02:22:41.583Z,3.53
2018-05-04T02:25:18.077Z,5.30
2018-05-04T02:27:48.420Z,5.87
2018-05-04T02:30:18.770Z,3.63
2018-05-04T02:32:49.852Z,5.43
2018-05-04T02:35:27.520Z,7.17
2018-05-04T02:37:58.924Z,6.37
2018-05-04T02:40:29.484Z,3.20
2018-05-04T02:43:00.556Z,6.27
2018-05-04T02:45:30.929Z,6.30
2018-05-04T02:48:01.267Z,5.90
2018-05-04T02:50:31.608Z,4.33
2018-05-04T02:53:02.731Z,9.33
2018-05-04T02:55:33.907Z,5.97
2018-05-04T02:58:04.192Z,4.03
2018-05-04T03:00:34.562Z,4.67
2018-05-04T03:03:05.661Z,4.50
2018-05-04T03:05:35.996Z,5.30
2018-05-04T03:08:07.122Z,5.10
2018-05-04T03:10:37.459Z,7.83
2018-05-04T03:13:07.792Z,6.83
2018-05-04T03:15:38.117Z,5.03
2018-05-04T03:18:09.216Z,4.87
2018-05-04T03:20:39.574Z,6.87
2018-05-04T03:23:09.937Z,4.60
2018-05-04T03:25:40.289Z,4.83
2018-05-04T03:28:10.645Z,5.87
2018-05-04T03:30:41.025Z,7.63
2018-05-04T03:33:11.361Z,6.47
2018-05-04T03:35:45.797Z,8.47
2018-05-04T03:38:35.523Z,7.10
2018-05-04T03:41:06.593Z,5.67
2018-05-04T03:43:36.932Z,6.73
2018-05-04T03:46:09.352Z,6.33
2018-05-04T03:48:40.456Z,4.80
2018-05-04T03:51:10.808Z,4.37
2018-05-04T03:53:42.179Z,4.17
2018-05-04T03:56:13.281Z,6.67
2018-05-04T03:59:38.226Z,6.20
2018-05-04T04:03:04.242Z,6.47
2018-05-04T04:05:34.633Z,10.60
2018-05-04T04:08:26.389Z,8.40
2018-05-04T04:10:56.722Z,6.83
2018-05-04T04:13:27.077Z,4.90
2018-05-04T04:15:58.198Z,3.67
2018-05-04T04:18:28.553Z,6.70
2018-05-04T04:20:58.892Z,5.43
2018-05-04T04:23:29.220Z,7.20
2018-05-04T04:26:01.847Z,8.63
2018-05-04T04:28:32.184Z,5.63
2018-05-04T04:31:03.252Z,7.23
2018-05-04T04:33:33.613Z,6.63
2018-05-04T04:36:24.367Z,8.63
2018-05-04T04:38:55.033Z,7.13
2018-05-04T04:41:25.349Z,5.87
2018-05-04T04:46:47.045Z,5.20
2018-05-04T04:49:17.379Z,7.73
2018-05-04T04:51:47.709Z,7.63
2018-05-04T04:54:18.854Z,7.97
2018-05-04T04:56:49.979Z,9.23
2018-05-04T04:59:20.332Z,7.73
2018-05-04T05:01:51.513Z,7.83
2018-05-04T05:04:21.799Z,10.23
2018-05-04T05:06:52.892Z,8.87
2018-05-04T05:09:30.431Z,7.20
2018-05-04T05:12:01.536Z,10.47
2018-05-04T05:14:31.876Z,8.53
2018-05-04T05:17:02.259Z,10.33
2018-05-04T05:19:32.587Z,9.00
2018-05-04T05:22:02.974Z,9.40
2018-05-04T05:24:33.310Z,6.97
2018-05-04T05:27:04.417Z,5.90
2018-05-04T05:29:34.821Z,8.27
2018-05-04T05:32:05.125Z,9.73
2018-05-04T05:34:35.478Z,11.00
2018-05-04T05:37:26.236Z,8.77
2018-05-04T05:39:57.341Z,8.90
2018-05-04T05:42:27.766Z,8.47
2018-05-04T05:44:58.051Z,9.30
2018-05-04T05:47:28.394Z,10.67
2018-05-04T05:49:58.740Z,7.53
2018-05-04T05:52:29.101Z,7.37
2018-05-04T05:55:00.220Z,9.60
2018-05-04T05:57:30.553Z,8.87
2018-05-04T06:00:00.943Z,9.67
2018-05-04T06:02:31.277Z,8.33
2018-05-04T06:05:01.617Z,10.40
2018-05-04T06:07:31.967Z,9.13
2018-05-04T06:10:03.065Z,10.20
2018-05-04T06:12:53.829Z,10.10
2018-05-04T06:15:24.171Z,9.60
2018-05-04T06:17:54.517Z,10.17
2018-05-04T06:20:24.849Z,8.57
2018-05-04T06:22:59.285Z,6.60
2018-05-04T06:25:29.614Z,9.47
2018-05-04T06:27:59.982Z,8.73
2018-05-04T06:30:30.595Z,9.93
2018-05-04T06:33:01.719Z,8.60
2018-05-04T06:35:32.080Z,8.20
2018-05-04T06:38:03.178Z,7.33
2018-05-04T06:40:33.534Z,11.93
2018-05-04T06:43:03.918Z,10.10
2018-05-04T06:45:34.271Z,12.30
2018-05-04T06:48:04.621Z,11.63
2018-05-04T06:50:35.751Z,8.57
2018-05-04T06:53:06.854Z,10.03
2018-05-04T06:55:56.588Z,10.47
2018-05-04T06:58:27.701Z,9.13
2018-05-04T07:00:58.077Z,10.03
2018-05-04T07:03:28.454Z,12.67
2018-05-04T07:05:58.764Z,14.93
2018-05-04T07:08:29.113Z,10.00
2018-05-04T07:10:59.450Z,8.23
2018-05-04T07:13:30.570Z,9.07
2018-05-04T07:16:00.909Z,10.10
2018-05-04T07:18:32.105Z,10.97
2018-05-04T07:21:03.182Z,8.73
2018-05-04T07:23:33.518Z,7.33
2018-05-04T07:26:03.894Z,13.40
2018-05-04T07:28:34.200Z,9.60
2018-05-04T07:31:04.546Z,8.87
2018-05-04T07:33:34.918Z,7.90
2018-05-04T07:36:05.309Z,7.93
2018-05-04T07:38:35.579Z,9.67
2018-05-04T07:41:06.781Z,8.40
2018-05-04T07:43:59.307Z,9.97
2018-05-04T07:46:30.704Z,8.70
2018-05-04T07:49:01.053Z,7.77
2018-05-04T07:51:32.400Z,9.33
2018-05-04T07:54:03.617Z,10.77
2018-05-04T07:56:39.892Z,12.23
2018-05-04T07:59:10.220Z,10.27
2018-05-04T08:01:40.562Z,7.27
2018-05-04T08:04:11.672Z,13.90
2018-05-04T08:06:42.059Z,11.57
2018-05-04T08:09:12.392Z,9.53
2018-05-04T08:11:43.759Z,8.03
2018-05-04T08:14:14.125Z,10.33
2018-05-04T08:16:45.233Z,7.40
2018-05-04T08:19:15.576Z,8.57
2018-05-04T08:21:45.947Z,10.77
2018-05-04T08:24:16.311Z,10.90
2018-05-04T08:26:46.652Z,8.07
2018-05-04T08:29:17.017Z,9.70
2018-05-04T08:31:47.353Z,9.07
2018-05-04T08:34:17.717Z,13.57
2018-05-04T08:36:48.089Z,9.63
2018-05-04T08:39:19.193Z,12.37
2018-05-04T08:41:49.517Z,10.77
2018-05-04T08:44:19.906Z,11.13
2018-05-04T08:46:52.394Z,10.90
2018-05-04T08:49:23.670Z,10.30
2018-05-04T08:54:40.917Z,12.70
2018-05-04T08:57:11.338Z,10.57
2018-05-04T08:59:41.648Z,12.47
2018-05-04T09:02:11.994Z,10.63
2018-05-04T09:04:42.359Z,10.10
2018-05-04T09:07:12.698Z,12.60
2018-05-04T09:09:43.066Z,11.97
2018-05-04T09:12:13.426Z,11.83
2018-05-04T09:14:43.774Z,11.93
2018-05-04T09:17:15.143Z,9.87
2018-05-04T09:20:06.917Z,11.57
2018-05-04T09:22:38.029Z,10.63
2018-05-04T09:25:08.368Z,12.63
2018-05-04T09:27:38.743Z,11.63
2018-05-04T09:30:09.110Z,10.37
2018-05-04T09:32:39.468Z,11.33
2018-05-04T09:35:10.569Z,11.33
2018-05-04T09:37:40.921Z,8.40
2018-05-04T09:40:11.290Z,12.30
2018-05-04T09:42:41.625Z,10.50
2018-05-04T09:45:17.057Z,14.70
2018-05-04T09:47:47.436Z,11.93
2018-05-04T09:50:17.782Z,9.20
2018-05-04T09:52:48.116Z,7.93
2018-05-04T09:55:18.484Z,7.23
2018-05-04T09:57:48.840Z,8.27
2018-05-04T10:00:19.149Z,9.40
2018-05-04T10:02:49.529Z,9.80
2018-05-04T10:05:20.639Z,11.07
2018-05-04T10:07:50.980Z,14.40
2018-05-04T10:10:22.110Z,8.67
2018-05-04T10:12:52.453Z,11.53
2018-05-04T10:15:23.560Z,9.50
2018-05-04T10:17:53.961Z,12.07
2018-05-04T10:20:24.311Z,10.53
2018-05-04T10:22:55.686Z,9.30
2018-05-04T10:25:26.842Z,13.37
2018-05-04T10:27:57.952Z,10.03
2018-05-04T10:30:28.305Z,10.60
2018-05-04T10:32:59.402Z,10.53
2018-05-04T10:35:50.153Z,8.60
2018-05-04T10:38:21.299Z,11.17
2018-05-04T10:40:52.407Z,11.90
2018-05-04T10:43:22.741Z,8.17
2018-05-04T10:45:53.120Z,10.93
2018-05-04T10:48:23.465Z,11.83
2018-05-04T10:50:53.824Z,11.03
2018-05-04T10:53:24.190Z,10.57
2018-05-04T10:55:54.493Z,9.90
2018-05-04T10:58:24.839Z,10.50
2018-05-04T11:00:55.219Z,11.77
2018-05-04T11:03:25.567Z,10.87
2018-05-04T11:05:56.679Z,11.17
2018-05-04T11:08:27.068Z,11.67
2018-05-04T11:10:57.373Z,11.90
2018-05-04T11:13:29.501Z,14.33
2018-05-04T11:15:59.868Z,10.83
2018-05-04T11:18:32.267Z,11.30
2018-05-04T11:21:06.741Z,11.47
2018-05-04T11:23:37.098Z,13.87
2018-05-04T11:26:07.412Z,12.43
2018-05-04T11:28:38.506Z,11.57
2018-05-04T11:31:08.848Z,11.20
2018-05-04T11:33:39.184Z,10.90
2018-05-04T11:36:10.348Z,10.23
2018-05-04T11:38:41.464Z,10.47
2018-05-04T11:41:11.822Z,10.37
2018-05-04T11:43:42.236Z,10.77
2018-05-04T11:46:13.314Z,9.73
2018-05-04T11:48:45.715Z,10.30
2018-05-04T11:51:16.098Z,11.53
2018-05-04T11:53:46.405Z,9.67
2018-05-04T11:56:17.530Z,10.40
2018-05-04T11:58:47.906Z,12.47
2018-05-04T12:01:20.302Z,10.17
2018-05-04T12:03:50.663Z,10.50
2018-05-04T12:06:21.827Z,9.27
2018-05-04T12:08:52.933Z,9.07
2018-05-04T12:11:23.303Z,11.83
2018-05-04T12:13:54.455Z,8.90
2018-05-04T12:16:24.792Z,9.90
2018-05-04T12:19:00.267Z,11.47
2018-05-04T12:21:30.647Z,10.73
2018-05-04T12:24:01.016Z,11.47
2018-05-04T12:26:31.374Z,9.80
2018-05-04T12:29:02.530Z,11.40
2018-05-04T12:31:33.639Z,11.93
2018-05-04T12:34:03.985Z,12.97
2018-05-04T12:36:34.344Z,9.63
2018-05-04T12:39:04.730Z,9.03
2018-05-04T12:41:35.070Z,9.93
2018-05-04T12:44:06.204Z,11.13
2018-05-04T12:46:37.310Z,13.00
2018-05-04T12:49:07.656Z,12.00
2018-05-04T12:51:37.996Z,9.17
2018-05-04T12:54:08.354Z,9.03
2018-05-04T12:56:38.693Z,11.83
2018-05-04T12:59:12.151Z,7.67
2018-05-04T13:01:43.264Z,9.37
2018-05-04T13:06:58.390Z,10.07
2018-05-04T13:09:29.741Z,11.37
2018-05-04T13:12:00.080Z,9.30
2018-05-04T13:14:30.469Z,10.40
2018-05-04T13:17:00.822Z,10.97
2018-05-04T13:19:31.929Z,10.40
2018-05-04T13:22:02.291Z,11.50
2018-05-04T13:24:33.396Z,9.77
2018-05-04T13:27:03.742Z,9.93
2018-05-04T13:29:34.101Z,9.03
2018-05-04T13:32:04.464Z,11.10
2018-05-04T13:34:34.823Z,12.83
2018-05-04T13:37:05.976Z,6.93
2018-05-04T13:39:37.098Z,10.97
2018-05-04T13:42:07.434Z,8.27
2018-05-04T13:44:38.570Z,8.83
2018-05-04T13:47:08.919Z,9.07
2018-05-04T13:49:39.259Z,8.37
2018-05-04T13:52:09.639Z,10.20
2018-05-04T13:54:39.999Z,9.17
2018-05-04T13:57:10.336Z,9.03
2018-05-04T13:59:40.698Z,13.37
2018-05-04T14:02:11.047Z,7.33
2018-05-04T14:04:41.389Z,8.80
2018-05-04T14:07:11.769Z,7.97
2018-05-04T14:10:03.545Z,9.37
2018-05-04T14:12:33.853Z,9.40
2018-05-04T14:15:04.198Z,11.27
2018-05-04T14:17:35.304Z,9.93
2018-05-04T14:20:05.689Z,9.20
2018-05-04T14:22:36.027Z,11.37
2018-05-04T14:25:06.371Z,8.57
2018-05-04T14:27:37.766Z,9.87
2018-05-04T14:30:08.868Z,9.90
2018-05-04T14:32:39.209Z,8.67
2018-05-04T14:35:09.591Z,11.00
2018-05-04T14:37:39.938Z,9.13
2018-05-04T14:40:10.286Z,11.10
2018-05-04T14:42:41.427Z,7.33
2018-05-04T14:45:13.806Z,7.40
2018-05-04T14:47:44.167Z,10.47
2018-05-04T14:50:15.555Z,11.40
2018-05-04T14:53:07.310Z,11.83
2018-05-04T14:55:38.693Z,11.00
2018-05-04T14:58:09.039Z,10.53
2018-05-04T15:00:40.424Z,10.17
2018-05-04T15:03:10.788Z,8.67
2018-05-04T15:05:41.862Z,10.13
2018-05-04T15:08:14.244Z,10.67
2018-05-04T15:10:44.617Z,11.63
2018-05-04T15:13:15.734Z,14.13
2018-05-04T15:15:46.050Z,11.27
2018-05-04T15:18:16.632Z,10.90
2018-05-04T15:20:47.756Z,9.63
2018-05-04T15:23:18.866Z,9.93
2018-05-04T15:25:52.296Z,12.37
2018-05-04T15:28:22.646Z,9.37
2018-05-04T15:30:53.753Z,9.87
2018-05-04T15:33:24.130Z,12.83
2018-05-04T15:35:54.483Z,11.90
2018-05-04T15:38:24.846Z,10.40
2018-05-04T15:40:55.211Z,8.73
2018-05-04T15:43:25.563Z,10.47
2018-05-04T15:45:55.976Z,10.70
2018-05-04T15:48:44.312Z,11.07
2018-05-04T15:51:32.828Z,18.50
2018-05-04T15:54:06.023Z,11.33
2018-05-04T15:56:36.368Z,11.03
2018-05-04T15:59:06.730Z,9.00
2018-05-04T16:01:58.533Z,8.90
2018-05-04T16:04:28.900Z,10.40
2018-05-04T16:06:59.245Z,11.70
2018-05-04T16:09:30.381Z,11.67
2018-05-04T16:12:00.689Z,9.07
2018-05-04T16:14:31.033Z,9.87
2018-05-04T16:17:01.417Z,10.80
2018-05-04T16:19:35.869Z,13.87
2018-05-04T16:22:06.384Z,10.80
2018-05-04T16:24:36.602Z,10.50
2018-05-04T16:27:06.946Z,11.83
2018-05-04T16:29:37.310Z,10.67
2018-05-04T16:32:07.937Z,12.07
2018-05-04T16:34:39.067Z,13.60
2018-05-04T16:37:10.201Z,11.10
2018-05-04T16:39:40.587Z,10.73
2018-05-04T16:42:18.125Z,11.63
2018-05-04T16:44:48.496Z,10.80
2018-05-04T16:47:24.683Z,10.73
2018-05-04T16:49:55.059Z,14.83
2018-05-04T16:52:26.133Z,10.13
2018-05-04T16:54:59.552Z,12.53
2018-05-04T16:57:30.917Z,10.60
2018-05-04T17:00:01.282Z,11.30
2018-05-04T17:02:31.625Z,10.83
2018-05-04T17:05:02.014Z,10.43
2018-05-04T17:07:33.138Z,8.77
2018-05-04T17:10:04.821Z,10.27
2018-05-04T17:12:35.973Z,9.87
2018-05-04T17:15:07.092Z,10.17
2018-05-04T17:20:20.644Z,11.93
2018-05-04T17:22:50.953Z,12.67
2018-05-04T17:25:21.311Z,10.53
2018-05-04T17:27:52.453Z,10.70
2018-05-04T17:30:23.574Z,11.90
2018-05-04T17:32:53.934Z,12.87
2018-05-04T17:35:25.058Z,11.27
2018-05-04T17:37:55.374Z,12.27
2018-05-04T17:40:25.899Z,11.33
2018-05-04T17:42:56.876Z,10.80
2018-05-04T17:45:27.215Z,11.20
2018-05-04T17:47:57.567Z,11.63
2018-05-04T17:50:27.935Z,12.17
2018-05-04T17:52:59.010Z,13.83
2018-05-04T17:55:29.362Z,15.07
2018-05-04T17:57:59.744Z,11.07
2018-05-04T18:00:30.865Z,13.60
2018-05-04T18:03:01.307Z,11.83
2018-05-04T18:05:32.642Z,11.23
2018-05-04T18:08:03.000Z,10.87
2018-05-04T18:10:33.363Z,13.50
2018-05-04T18:13:04.761Z,14.00
2018-05-04T18:15:35.873Z,12.50
2018-05-04T18:18:06.247Z,12.27
2018-05-04T18:20:36.631Z,14.33
2018-05-04T18:23:06.975Z,11.13
2018-05-04T18:25:38.079Z,13.53
2018-05-04T18:28:08.460Z,13.97
2018-05-04T18:30:40.589Z,14.07
2018-05-04T18:33:10.952Z,11.97
2018-05-04T18:35:42.099Z,13.90
2018-05-04T18:38:12.444Z,11.63
2018-05-04T18:40:44.881Z,13.77
2018-05-04T18:43:16.014Z,13.10
2018-05-04T18:45:46.361Z,14.20
2018-05-04T18:48:17.471Z,13.57
2018-05-04T18:50:47.822Z,11.57
2018-05-04T18:53:18.949Z,12.60
2018-05-04T18:55:49.327Z,11.63
2018-05-04T18:58:20.428Z,13.40
2018-05-04T19:00:51.558Z,11.70
2018-05-04T19:03:21.910Z,13.33
2018-05-04T19:05:52.259Z,15.20
2018-05-04T19:08:22.623Z,11.90
2018-05-04T19:10:52.938Z,14.13
2018-05-04T19:13:24.339Z,12.03
2018-05-04T19:15:55.447Z,13.27
2018-05-04T19:18:25.810Z,15.00
2018-05-04T19:20:56.181Z,16.07
2018-05-04T19:23:47.919Z,14.10
2018-05-04T19:26:19.066Z,14.57
2018-05-04T19:28:49.411Z,13.43
2018-05-04T19:31:19.774Z,14.87
2018-05-04T19:33:50.146Z,13.83
2018-05-04T19:36:20.509Z,14.17
2018-05-04T19:38:51.628Z,15.27
2018-05-04T19:41:23.001Z,13.50
2018-05-04T19:43:54.107Z,12.97
2018-05-04T19:46:25.217Z,13.73
2018-05-04T19:48:55.590Z,15.80
2018-05-04T19:51:25.937Z,15.47
2018-05-04T19:53:56.282Z,13.10
2018-05-04T19:56:26.659Z,15.60
2018-05-04T19:58:57.068Z,14.60
2018-05-04T20:01:27.373Z,13.63
2018-05-04T20:04:03.877Z,14.90
2018-05-04T20:06:34.220Z,13.80
2018-05-04T20:09:05.329Z,13.70
2018-05-04T20:11:55.361Z,14.50
2018-05-04T20:14:26.487Z,14.40
2018-05-04T20:16:56.834Z,14.23
2018-05-04T20:19:27.965Z,15.63
2018-05-04T20:21:59.093Z,16.87
2018-05-04T20:24:29.430Z,17.10
2018-05-04T20:27:00.570Z,16.27
2018-05-04T20:29:30.931Z,14.60
2018-05-04T20:32:01.486Z,17.33
2018-05-04T20:34:39.171Z,16.03
2018-05-04T20:37:09.482Z,17.30
2018-05-04T20:39:39.832Z,15.37
2018-05-04T20:42:14.290Z,15.97
2018-05-04T20:44:44.629Z,14.10
2018-05-04T20:47:15.746Z,16.00
2018-05-04T20:49:46.112Z,16.00
2018-05-04T20:52:17.228Z,14.40
2018-05-04T20:54:47.592Z,15.23
2018-05-04T20:57:17.976Z,14.40
2018-05-04T20:59:48.318Z,14.90
2018-05-04T21:02:19.439Z,15.40
2018-05-04T21:04:49.812Z,17.23
2018-05-04T21:07:20.157Z,13.33
2018-05-04T21:09:52.549Z,15.60
2018-05-04T21:12:23.954Z,16.50
2018-05-04T21:14:55.065Z,15.57
2018-05-04T21:17:25.425Z,15.77
2018-05-04T21:19:56.645Z,13.20
2018-05-04T21:22:27.678Z,13.60
2018-05-04T21:27:41.654Z,13.23
2018-05-04T21:30:12.763Z,13.20
2018-05-04T21:32:43.111Z,14.23
2018-05-04T21:35:13.494Z,13.03
2018-05-04T21:37:43.838Z,14.73
2018-05-04T21:40:33.574Z,16.17
2018-05-04T21:43:04.678Z,14.73
2018-05-04T21:45:35.040Z,13.93
2018-05-04T21:48:06.165Z,14.90
2018-05-04T21:50:36.519Z,12.80
2018-05-04T21:53:06.880Z,11.50
2018-05-04T21:55:57.386Z,14.33
2018-05-04T21:58:28.773Z,16.43
2018-05-04T22:00:59.901Z,12.43
2018-05-04T22:03:30.268Z,13.00
2018-05-04T22:06:00.604Z,13.40
2018-05-04T22:08:30.964Z,12.13
2018-05-04T22:11:01.295Z,12.03
2018-05-04T22:13:31.634Z,12.97
2018-05-04T22:16:01.969Z,11.93
2018-05-04T22:18:33.123Z,12.67
2018-05-04T22:21:04.242Z,13.40
2018-05-04T22:23:34.581Z,11.83
2018-05-04T22:26:05.728Z,12.33
2018-05-04T22:28:36.860Z,12.10
2018-05-04T22:31:07.164Z,10.60
2018-05-04T22:33:37.533Z,13.70
2018-05-04T22:36:08.660Z,10.87
2018-05-04T22:38:39.763Z,13.73
2018-05-04T22:41:10.161Z,13.27
2018-05-04T22:43:40.509Z,11.00
2018-05-04T22:46:33.070Z,13.57
2018-05-04T22:49:03.458Z,15.83
2018-05-04T22:51:33.753Z,11.47
2018-05-04T22:54:04.135Z,11.13
2018-05-04T22:56:34.498Z,14.63
2018-05-04T22:59:04.829Z,13.40
2018-05-04T23:01:35.966Z,13.63
2018-05-04T23:04:06.330Z,11.63
2018-05-04T23:06:36.700Z,14.87
2018-05-04T23:09:07.161Z,11.70
2018-05-04T23:11:37.438Z,14.50
2018-05-04T23:14:07.798Z,13.97
2018-05-04T23:16:38.171Z,14.40
2018-05-04T23:19:10.565Z,14.33
2018-05-04T23:21:40.873Z,15.63
2018-05-04T23:24:12.280Z,15.47
2018-05-04T23:26:43.387Z,14.50
2018-05-04T23:29:13.727Z,15.47
2018-05-04T23:31:44.094Z,15.37
2018-05-04T23:34:14.463Z,15.93
2018-05-04T23:36:49.942Z,17.03
2018-05-04T23:39:21.302Z,15.97
2018-05-04T23:41:51.657Z,15.43
2018-05-04T23:44:22.028Z,15.27
2018-05-04T23:46:52.374Z,16.70
2018-05-04T23:49:23.489Z,17.37
2018-05-04T23:51:53.856Z,14.20
2018-05-04T23:54:25.994Z,16.53
2018-05-04T23:56:56.355Z,15.57
2018-05-04T23:59:26.743Z,13.27
